sensor_id;sensor_type;location;lat;lon;timestamp;P1;durP1;ratioP1;P2;durP2;ratioP2
20621;SDS011;10470;42.670;23.354;2022-09-09T00:00:59;10.80;;;8.83;;
20621;SDS011;10470;42.670;23.354;2022-09-09T00:03:43;9.63;;;8.47;;
20621;SDS011;10470;42.670;23.354;2022-09-09T00:06:25;10.70;;;8.67;;
20621;SDS011;10470;42.670;23.354;2022-09-09T00:09:00;9.30;;;8.30;;
20621;SDS011;10470;42.670;23.354;2022-09-09T00:11:36;10.50;;;8.30;;
20621;SDS011;10470;42.670;23.354;2022-09-09T00:17:21;9.13;;;7.73;;
20621;SDS011;10470;42.670;23.354;2022-09-09T00:22:42;11.13;;;9.00;;
20621;SDS011;10470;42.670;23.354;2022-09-09T00:25:23;13.57;;;9.03;;
20621;SDS011;10470;42.670;23.354;2022-09-09T00:27:58;9.27;;;8.37;;
20621;SDS011;10470;42.670;23.354;2022-09-09T00:30:24;12.17;;;8.90;;
20621;SDS011;10470;42.670;23.354;2022-09-09T00:33:00;12.20;;;9.30;;
20621;SDS011;10470;42.670;23.354;2022-09-09T00:35:40;11.83;;;8.87;;
20621;SDS011;10470;42.670;23.354;2022-09-09T00:38:16;11.57;;;9.40;;
20621;SDS011;10470;42.670;23.354;2022-09-09T00:40:53;11.37;;;9.47;;
20621;SDS011;10470;42.670;23.354;2022-09-09T00:43:30;14.73;;;9.00;;
20621;SDS011;10470;42.670;23.354;2022-09-09T00:51:29;10.57;;;8.73;;
20621;SDS011;10470;42.670;23.354;2022-09-09T01:02:21;11.70;;;8.93;;
20621;SDS011;10470;42.670;23.354;2022-09-09T01:04:53;10.07;;;8.60;;
20621;SDS011;10470;42.670;23.354;2022-09-09T01:07:19;11.40;;;8.97;;
20621;SDS011;10470;42.670;23.354;2022-09-09T01:09:58;10.97;;;8.83;;
20621;SDS011;10470;42.670;23.354;2022-09-09T01:12:38;10.30;;;8.87;;
20621;SDS011;10470;42.670;23.354;2022-09-09T01:15:15;11.03;;;9.70;;
20621;SDS011;10470;42.670;23.354;2022-09-09T01:23:51;11.53;;;9.37;;
20621;SDS011;10470;42.670;23.354;2022-09-09T01:28:53;10.57;;;9.10;;
20621;SDS011;10470;42.670;23.354;2022-09-09T01:31:21;11.70;;;9.43;;
20621;SDS011;10470;42.670;23.354;2022-09-09T01:33:51;11.80;;;8.77;;
20621;SDS011;10470;42.670;23.354;2022-09-09T01:36:37;10.97;;;9.33;;
20621;SDS011;10470;42.670;23.354;2022-09-09T01:39:07;10.87;;;8.30;;
20621;SDS011;10470;42.670;23.354;2022-09-09T01:41:33;13.13;;;8.70;;
20621;SDS011;10470;42.670;23.354;2022-09-09T01:43:58;9.70;;;8.67;;
20621;SDS011;10470;42.670;23.354;2022-09-09T01:46:24;10.33;;;9.00;;
20621;SDS011;10470;42.670;23.354;2022-09-09T01:48:51;10.17;;;8.80;;
20621;SDS011;10470;42.670;23.354;2022-09-09T01:51:18;11.87;;;9.00;;
20621;SDS011;10470;42.670;23.354;2022-09-09T01:53:43;10.50;;;8.47;;
20621;SDS011;10470;42.670;23.354;2022-09-09T02:01:41;9.87;;;8.80;;
20621;SDS011;10470;42.670;23.354;2022-09-09T02:07:00;10.03;;;8.90;;
20621;SDS011;10470;42.670;23.354;2022-09-09T02:09:26;12.90;;;8.67;;
20621;SDS011;10470;42.670;23.354;2022-09-09T02:14:52;10.90;;;9.27;;
20621;SDS011;10470;42.670;23.354;2022-09-09T02:17:27;17.33;;;10.07;;
20621;SDS011;10470;42.670;23.354;2022-09-09T02:20:06;11.37;;;9.00;;
20621;SDS011;10470;42.670;23.354;2022-09-09T02:22:35;12.00;;;9.50;;
20621;SDS011;10470;42.670;23.354;2022-09-09T02:25:05;11.33;;;8.77;;
20621;SDS011;10470;42.670;23.354;2022-09-09T02:27:33;10.37;;;9.03;;
20621;SDS011;10470;42.670;23.354;2022-09-09T02:29:59;10.43;;;8.80;;
20621;SDS011;10470;42.670;23.354;2022-09-09T02:32:27;14.07;;;9.57;;
20621;SDS011;10470;42.670;23.354;2022-09-09T02:35:15;10.50;;;8.70;;
20621;SDS011;10470;42.670;23.354;2022-09-09T02:37:45;10.17;;;9.07;;
20621;SDS011;10470;42.670;23.354;2022-09-09T02:40:11;11.03;;;8.93;;
20621;SDS011;10470;42.670;23.354;2022-09-09T02:42:47;10.87;;;9.43;;
20621;SDS011;10470;42.670;23.354;2022-09-09T02:45:24;10.13;;;9.03;;
20621;SDS011;10470;42.670;23.354;2022-09-09T02:53:54;10.13;;;9.07;;
20621;SDS011;10470;42.670;23.354;2022-09-09T02:56:27;9.87;;;8.60;;
20621;SDS011;10470;42.670;23.354;2022-09-09T02:58:58;9.10;;;8.20;;
20621;SDS011;10470;42.670;23.354;2022-09-09T03:01:24;10.97;;;9.50;;
20621;SDS011;10470;42.670;23.354;2022-09-09T03:03:50;13.10;;;9.40;;
20621;SDS011;10470;42.670;23.354;2022-09-09T03:06:15;11.67;;;9.50;;
20621;SDS011;10470;42.670;23.354;2022-09-09T03:08:41;11.60;;;9.93;;
20621;SDS011;10470;42.670;23.354;2022-09-09T03:11:07;10.57;;;9.20;;
20621;SDS011;10470;42.670;23.354;2022-09-09T03:13:34;10.40;;;8.73;;
20621;SDS011;10470;42.670;23.354;2022-09-09T03:15:59;9.70;;;8.70;;
20621;SDS011;10470;42.670;23.354;2022-09-09T03:18:25;10.60;;;9.50;;
20621;SDS011;10470;42.670;23.354;2022-09-09T03:20:50;12.13;;;9.67;;
20621;SDS011;10470;42.670;23.354;2022-09-09T03:23:16;13.57;;;9.43;;
20621;SDS011;10470;42.670;23.354;2022-09-09T03:25:50;13.07;;;9.93;;
20621;SDS011;10470;42.670;23.354;2022-09-09T03:28:17;10.70;;;9.47;;
20621;SDS011;10470;42.670;23.354;2022-09-09T03:30:42;13.07;;;9.67;;
20621;SDS011;10470;42.670;23.354;2022-09-09T03:33:08;12.43;;;10.10;;
20621;SDS011;10470;42.670;23.354;2022-09-09T03:35:34;11.33;;;9.47;;
20621;SDS011;10470;42.670;23.354;2022-09-09T03:37:59;14.10;;;9.90;;
20621;SDS011;10470;42.670;23.354;2022-09-09T03:40:25;11.77;;;9.93;;
20621;SDS011;10470;42.670;23.354;2022-09-09T03:42:51;13.33;;;10.90;;
20621;SDS011;10470;42.670;23.354;2022-09-09T03:45:16;12.47;;;9.80;;
20621;SDS011;10470;42.670;23.354;2022-09-09T03:47:42;14.30;;;10.47;;
20621;SDS011;10470;42.670;23.354;2022-09-09T03:50:08;12.60;;;10.70;;
20621;SDS011;10470;42.670;23.354;2022-09-09T03:52:38;13.37;;;9.77;;
20621;SDS011;10470;42.670;23.354;2022-09-09T03:55:06;12.67;;;10.60;;
20621;SDS011;10470;42.670;23.354;2022-09-09T03:57:32;12.17;;;9.93;;
20621;SDS011;10470;42.670;23.354;2022-09-09T04:00:04;13.80;;;10.00;;
20621;SDS011;10470;42.670;23.354;2022-09-09T04:02:31;12.60;;;11.07;;
20621;SDS011;10470;42.670;23.354;2022-09-09T04:04:57;13.37;;;10.43;;
20621;SDS011;10470;42.670;23.354;2022-09-09T04:07:23;14.37;;;10.50;;
20621;SDS011;10470;42.670;23.354;2022-09-09T04:09:48;12.33;;;11.03;;
20621;SDS011;10470;42.670;23.354;2022-09-09T04:12:13;15.00;;;10.70;;
20621;SDS011;10470;42.670;23.354;2022-09-09T04:14:39;14.20;;;10.73;;
20621;SDS011;10470;42.670;23.354;2022-09-09T04:17:04;11.77;;;10.43;;
20621;SDS011;10470;42.670;23.354;2022-09-09T04:19:31;15.57;;;11.30;;
20621;SDS011;10470;42.670;23.354;2022-09-09T04:21:57;12.80;;;10.77;;
20621;SDS011;10470;42.670;23.354;2022-09-09T04:24:23;11.80;;;10.00;;
20621;SDS011;10470;42.670;23.354;2022-09-09T04:26:49;15.77;;;10.63;;
20621;SDS011;10470;42.670;23.354;2022-09-09T04:29:15;15.47;;;10.60;;
20621;SDS011;10470;42.670;23.354;2022-09-09T04:31:40;14.00;;;11.03;;
20621;SDS011;10470;42.670;23.354;2022-09-09T04:34:07;14.50;;;10.73;;
20621;SDS011;10470;42.670;23.354;2022-09-09T04:36:33;13.07;;;9.80;;
20621;SDS011;10470;42.670;23.354;2022-09-09T04:39:00;11.80;;;10.60;;
20621;SDS011;10470;42.670;23.354;2022-09-09T04:41:26;12.57;;;10.00;;
20621;SDS011;10470;42.670;23.354;2022-09-09T04:43:52;15.73;;;10.20;;
20621;SDS011;10470;42.670;23.354;2022-09-09T04:46:19;14.87;;;10.47;;
20621;SDS011;10470;42.670;23.354;2022-09-09T04:48:49;14.70;;;11.53;;
20621;SDS011;10470;42.670;23.354;2022-09-09T04:51:14;13.57;;;10.73;;
20621;SDS011;10470;42.670;23.354;2022-09-09T04:53:40;14.13;;;11.37;;
20621;SDS011;10470;42.670;23.354;2022-09-09T04:56:07;19.97;;;11.40;;
20621;SDS011;10470;42.670;23.354;2022-09-09T04:58:37;14.27;;;11.63;;
20621;SDS011;10470;42.670;23.354;2022-09-09T05:01:07;16.97;;;11.47;;
20621;SDS011;10470;42.670;23.354;2022-09-09T05:03:33;75.20;;;27.37;;
20621;SDS011;10470;42.670;23.354;2022-09-09T05:06:03;17.60;;;12.23;;
20621;SDS011;10470;42.670;23.354;2022-09-09T05:08:39;14.53;;;11.60;;
20621;SDS011;10470;42.670;23.354;2022-09-09T05:13:45;13.63;;;11.63;;
20621;SDS011;10470;42.670;23.354;2022-09-09T05:16:11;16.73;;;11.80;;
20621;SDS011;10470;42.670;23.354;2022-09-09T05:18:38;15.83;;;11.87;;
20621;SDS011;10470;42.670;23.354;2022-09-09T05:21:04;14.77;;;11.97;;
20621;SDS011;10470;42.670;23.354;2022-09-09T05:23:31;19.20;;;12.97;;
20621;SDS011;10470;42.670;23.354;2022-09-09T05:25:58;17.20;;;12.53;;
20621;SDS011;10470;42.670;23.354;2022-09-09T05:28:25;16.37;;;11.63;;
20621;SDS011;10470;42.670;23.354;2022-09-09T05:31:01;19.30;;;12.20;;
20621;SDS011;10470;42.670;23.354;2022-09-09T05:33:33;16.87;;;11.10;;
20621;SDS011;10470;42.670;23.354;2022-09-09T05:36:02;21.07;;;12.63;;
20621;SDS011;10470;42.670;23.354;2022-09-09T05:38:30;13.13;;;10.57;;
20621;SDS011;10470;42.670;23.354;2022-09-09T05:40:58;20.27;;;11.00;;
20621;SDS011;10470;42.670;23.354;2022-09-09T05:43:24;14.83;;;10.23;;
20621;SDS011;10470;42.670;23.354;2022-09-09T05:46:03;10.37;;;9.00;;
20621;SDS011;10470;42.670;23.354;2022-09-09T05:48:36;13.40;;;9.30;;
20621;SDS011;10470;42.670;23.354;2022-09-09T05:51:06;16.60;;;12.37;;
20621;SDS011;10470;42.670;23.354;2022-09-09T05:53:35;12.93;;;10.20;;
20621;SDS011;10470;42.670;23.354;2022-09-09T05:58:31;22.27;;;17.37;;
20621;SDS011;10470;42.670;23.354;2022-09-09T06:01:04;23.30;;;15.07;;
20621;SDS011;10470;42.670;23.354;2022-09-09T06:03:32;12.73;;;9.53;;
20621;SDS011;10470;42.670;23.354;2022-09-09T06:06:03;13.83;;;9.40;;
20621;SDS011;10470;42.670;23.354;2022-09-09T06:08:30;11.67;;;9.30;;
20621;SDS011;10470;42.670;23.354;2022-09-09T06:11:03;14.27;;;9.53;;
20621;SDS011;10470;42.670;23.354;2022-09-09T06:13:29;12.30;;;10.30;;
20621;SDS011;10470;42.670;23.354;2022-09-09T06:15:55;13.73;;;11.03;;
20621;SDS011;10470;42.670;23.354;2022-09-09T06:18:21;12.73;;;11.40;;
20621;SDS011;10470;42.670;23.354;2022-09-09T06:23:42;12.33;;;9.70;;
20621;SDS011;10470;42.670;23.354;2022-09-09T06:26:13;12.57;;;9.13;;
20621;SDS011;10470;42.670;23.354;2022-09-09T06:28:41;15.87;;;10.37;;
20621;SDS011;10470;42.670;23.354;2022-09-09T06:31:08;14.30;;;10.27;;
20621;SDS011;10470;42.670;23.354;2022-09-09T06:33:36;10.30;;;9.30;;
20621;SDS011;10470;42.670;23.354;2022-09-09T06:36:06;10.13;;;9.10;;
20621;SDS011;10470;42.670;23.354;2022-09-09T06:38:35;12.83;;;9.33;;
20621;SDS011;10470;42.670;23.354;2022-09-09T06:41:00;9.83;;;8.47;;
20621;SDS011;10470;42.670;23.354;2022-09-09T06:43:26;9.83;;;7.67;;
20621;SDS011;10470;42.670;23.354;2022-09-09T06:45:56;8.10;;;7.30;;
20621;SDS011;10470;42.670;23.354;2022-09-09T06:48:22;8.03;;;7.20;;
20621;SDS011;10470;42.670;23.354;2022-09-09T06:50:48;11.97;;;6.93;;
20621;SDS011;10470;42.670;23.354;2022-09-09T06:53:18;10.37;;;7.03;;
20621;SDS011;10470;42.670;23.354;2022-09-09T06:55:46;10.53;;;6.90;;
20621;SDS011;10470;42.670;23.354;2022-09-09T06:58:12;9.10;;;6.60;;
20621;SDS011;10470;42.670;23.354;2022-09-09T07:00:38;7.70;;;6.70;;
20621;SDS011;10470;42.670;23.354;2022-09-09T07:03:04;7.30;;;6.50;;
20621;SDS011;10470;42.670;23.354;2022-09-09T07:05:30;6.80;;;6.00;;
20621;SDS011;10470;42.670;23.354;2022-09-09T07:07:55;9.03;;;7.67;;
20621;SDS011;10470;42.670;23.354;2022-09-09T07:10:21;7.20;;;6.50;;
20621;SDS011;10470;42.670;23.354;2022-09-09T07:12:50;8.60;;;6.97;;
20621;SDS011;10470;42.670;23.354;2022-09-09T07:15:20;7.43;;;6.30;;
20621;SDS011;10470;42.670;23.354;2022-09-09T07:17:46;6.60;;;6.00;;
20621;SDS011;10470;42.670;23.354;2022-09-09T07:20:13;7.30;;;6.60;;
20621;SDS011;10470;42.670;23.354;2022-09-09T07:22:39;6.73;;;5.90;;
20621;SDS011;10470;42.670;23.354;2022-09-09T07:25:06;7.00;;;6.37;;
20621;SDS011;10470;42.670;23.354;2022-09-09T07:27:32;8.60;;;6.37;;
20621;SDS011;10470;42.670;23.354;2022-09-09T07:29:57;9.97;;;7.10;;
20621;SDS011;10470;42.670;23.354;2022-09-09T07:32:23;7.23;;;5.90;;
20621;SDS011;10470;42.670;23.354;2022-09-09T07:34:48;7.00;;;5.97;;
20621;SDS011;10470;42.670;23.354;2022-09-09T07:37:15;6.80;;;6.13;;
20621;SDS011;10470;42.670;23.354;2022-09-09T07:39:41;9.27;;;6.60;;
20621;SDS011;10470;42.670;23.354;2022-09-09T07:42:07;10.60;;;8.37;;
20621;SDS011;10470;42.670;23.354;2022-09-09T07:44:34;6.53;;;5.57;;
20621;SDS011;10470;42.670;23.354;2022-09-09T07:47:01;6.57;;;5.30;;
20621;SDS011;10470;42.670;23.354;2022-09-09T07:49:27;6.77;;;5.60;;
20621;SDS011;10470;42.670;23.354;2022-09-09T07:51:53;7.93;;;5.10;;
20621;SDS011;10470;42.670;23.354;2022-09-09T07:54:19;5.93;;;5.33;;
20621;SDS011;10470;42.670;23.354;2022-09-09T07:56:45;5.87;;;5.27;;
20621;SDS011;10470;42.670;23.354;2022-09-09T07:59:12;6.93;;;5.20;;
20621;SDS011;10470;42.670;23.354;2022-09-09T08:01:42;7.33;;;5.50;;
20621;SDS011;10470;42.670;23.354;2022-09-09T08:04:11;5.47;;;4.90;;
20621;SDS011;10470;42.670;23.354;2022-09-09T08:06:43;6.43;;;5.37;;
20621;SDS011;10470;42.670;23.354;2022-09-09T08:09:11;7.40;;;5.10;;
20621;SDS011;10470;42.670;23.354;2022-09-09T08:11:37;7.87;;;5.27;;
20621;SDS011;10470;42.670;23.354;2022-09-09T08:14:04;7.07;;;5.70;;
20621;SDS011;10470;42.670;23.354;2022-09-09T08:16:31;6.20;;;5.20;;
20621;SDS011;10470;42.670;23.354;2022-09-09T08:18:58;6.00;;;5.10;;
20621;SDS011;10470;42.670;23.354;2022-09-09T08:21:25;5.83;;;5.00;;
20621;SDS011;10470;42.670;23.354;2022-09-09T08:23:53;5.80;;;5.10;;
20621;SDS011;10470;42.670;23.354;2022-09-09T08:26:24;9.47;;;5.30;;
20621;SDS011;10470;42.670;23.354;2022-09-09T08:28:53;5.77;;;5.10;;
20621;SDS011;10470;42.670;23.354;2022-09-09T08:31:21;6.33;;;5.50;;
20621;SDS011;10470;42.670;23.354;2022-09-09T08:33:50;6.73;;;5.50;;
20621;SDS011;10470;42.670;23.354;2022-09-09T08:36:17;6.47;;;5.13;;
20621;SDS011;10470;42.670;23.354;2022-09-09T08:38:47;8.47;;;5.60;;
20621;SDS011;10470;42.670;23.354;2022-09-09T08:43:48;8.53;;;5.27;;
20621;SDS011;10470;42.670;23.354;2022-09-09T08:46:22;6.73;;;5.57;;
20621;SDS011;10470;42.670;23.354;2022-09-09T08:49:01;7.13;;;5.47;;
20621;SDS011;10470;42.670;23.354;2022-09-09T08:51:36;6.33;;;5.73;;
20621;SDS011;10470;42.670;23.354;2022-09-09T08:54:02;8.40;;;5.57;;
20621;SDS011;10470;42.670;23.354;2022-09-09T08:56:30;8.33;;;5.90;;
20621;SDS011;10470;42.670;23.354;2022-09-09T08:58:57;7.93;;;6.70;;
20621;SDS011;10470;42.670;23.354;2022-09-09T09:04:03;6.40;;;5.40;;
20621;SDS011;10470;42.670;23.354;2022-09-09T09:06:50;6.47;;;5.87;;
20621;SDS011;10470;42.670;23.354;2022-09-09T09:10:15;7.57;;;6.00;;
20621;SDS011;10470;42.670;23.354;2022-09-09T09:12:24;7.67;;;6.90;;
20621;SDS011;10470;42.670;23.354;2022-09-09T09:14:52;7.93;;;6.03;;
20621;SDS011;10470;42.670;23.354;2022-09-09T09:17:21;6.13;;;5.57;;
20621;SDS011;10470;42.670;23.354;2022-09-09T09:19:50;8.60;;;7.70;;
20621;SDS011;10470;42.670;23.354;2022-09-09T09:24:58;7.03;;;5.57;;
20621;SDS011;10470;42.670;23.354;2022-09-09T09:27:34;8.30;;;5.60;;
20621;SDS011;10470;42.670;23.354;2022-09-09T09:30:14;7.37;;;5.53;;
20621;SDS011;10470;42.670;23.354;2022-09-09T09:32:44;6.63;;;5.80;;
20621;SDS011;10470;42.670;23.354;2022-09-09T09:35:31;8.00;;;5.80;;
20621;SDS011;10470;42.670;23.354;2022-09-09T09:37:56;6.30;;;5.70;;
20621;SDS011;10470;42.670;23.354;2022-09-09T09:40:22;6.37;;;5.77;;
20621;SDS011;10470;42.670;23.354;2022-09-09T09:42:59;11.47;;;8.73;;
20621;SDS011;10470;42.670;23.354;2022-09-09T09:45:27;8.77;;;6.70;;
20621;SDS011;10470;42.670;23.354;2022-09-09T09:48:06;6.73;;;5.70;;
20621;SDS011;10470;42.670;23.354;2022-09-09T09:50:34;8.03;;;6.20;;
20621;SDS011;10470;42.670;23.354;2022-09-09T09:53:02;8.10;;;6.13;;
20621;SDS011;10470;42.670;23.354;2022-09-09T09:55:33;5.90;;;5.40;;
20621;SDS011;10470;42.670;23.354;2022-09-09T09:58:04;6.30;;;5.70;;
20621;SDS011;10470;42.670;23.354;2022-09-09T10:00:31;6.43;;;5.50;;
20621;SDS011;10470;42.670;23.354;2022-09-09T10:02:59;6.50;;;5.70;;
20621;SDS011;10470;42.670;23.354;2022-09-09T10:05:26;5.97;;;5.47;;
20621;SDS011;10470;42.670;23.354;2022-09-09T10:08:13;6.23;;;5.60;;
20621;SDS011;10470;42.670;23.354;2022-09-09T10:16:24;6.90;;;5.47;;
20621;SDS011;10470;42.670;23.354;2022-09-09T10:26:59;6.80;;;6.20;;
20621;SDS011;10470;42.670;23.354;2022-09-09T10:54:53;7.73;;;6.10;;
20621;SDS011;10470;42.670;23.354;2022-09-09T11:00:18;7.77;;;6.17;;
20621;SDS011;10470;42.670;23.354;2022-09-09T11:02:56;6.60;;;6.00;;
20621;SDS011;10470;42.670;23.354;2022-09-09T11:13:07;7.63;;;6.83;;
20621;SDS011;10470;42.670;23.354;2022-09-09T11:15:49;8.97;;;7.00;;
20621;SDS011;10470;42.670;23.354;2022-09-09T11:18:21;7.77;;;6.67;;
20621;SDS011;10470;42.670;23.354;2022-09-09T11:20:49;7.77;;;6.87;;
20621;SDS011;10470;42.670;23.354;2022-09-09T11:23:27;8.47;;;7.13;;
20621;SDS011;10470;42.670;23.354;2022-09-09T11:26:04;7.70;;;7.00;;
20621;SDS011;10470;42.670;23.354;2022-09-09T11:34:27;8.40;;;7.50;;
20621;SDS011;10470;42.670;23.354;2022-09-09T11:39:39;9.33;;;8.27;;
20621;SDS011;10470;42.670;23.354;2022-09-09T11:42:20;10.47;;;8.03;;
20621;SDS011;10470;42.670;23.354;2022-09-09T11:44:48;11.47;;;8.03;;
20621;SDS011;10470;42.670;23.354;2022-09-09T11:47:25;8.87;;;7.60;;
20621;SDS011;10470;42.670;23.354;2022-09-09T11:49:55;11.47;;;8.90;;
20621;SDS011;10470;42.670;23.354;2022-09-09T11:55:11;8.73;;;7.47;;
20621;SDS011;10470;42.670;23.354;2022-09-09T11:58:02;10.97;;;8.40;;
20621;SDS011;10470;42.670;23.354;2022-09-09T12:02:58;10.13;;;7.90;;
20621;SDS011;10470;42.670;23.354;2022-09-09T12:05:24;9.40;;;7.80;;
20621;SDS011;10470;42.670;23.354;2022-09-09T12:08:10;8.17;;;7.37;;
20621;SDS011;10470;42.670;23.354;2022-09-09T12:10:52;14.20;;;9.37;;
20621;SDS011;10470;42.670;23.354;2022-09-09T12:13:20;9.60;;;7.87;;
20621;SDS011;10470;42.670;23.354;2022-09-09T12:15:52;10.53;;;7.37;;
20621;SDS011;10470;42.670;23.354;2022-09-09T12:18:32;20.77;;;15.90;;
20621;SDS011;10470;42.670;23.354;2022-09-09T12:21:04;12.70;;;9.13;;
20621;SDS011;10470;42.670;23.354;2022-09-09T12:29:26;9.37;;;7.70;;
20621;SDS011;10470;42.670;23.354;2022-09-09T12:37:44;9.57;;;7.50;;
20621;SDS011;10470;42.670;23.354;2022-09-09T12:40:21;10.43;;;7.60;;
20621;SDS011;10470;42.670;23.354;2022-09-09T12:43:00;12.17;;;8.10;;
20621;SDS011;10470;42.670;23.354;2022-09-09T12:45:26;8.63;;;7.50;;
20621;SDS011;10470;42.670;23.354;2022-09-09T12:52:47;11.07;;;7.83;;
20621;SDS011;10470;42.670;23.354;2022-09-09T12:55:17;12.57;;;7.40;;
20621;SDS011;10470;42.670;23.354;2022-09-09T12:57:46;9.83;;;7.80;;
20621;SDS011;10470;42.670;23.354;2022-09-09T13:00:16;12.87;;;8.20;;
20621;SDS011;10470;42.670;23.354;2022-09-09T13:02:50;12.57;;;7.93;;
20621;SDS011;10470;42.670;23.354;2022-09-09T13:05:24;9.17;;;7.33;;
20621;SDS011;10470;42.670;23.354;2022-09-09T13:07:51;9.60;;;8.63;;
20621;SDS011;10470;42.670;23.354;2022-09-09T13:10:27;9.77;;;8.77;;
20621;SDS011;10470;42.670;23.354;2022-09-09T13:12:57;12.50;;;8.93;;
20621;SDS011;10470;42.670;23.354;2022-09-09T13:15:23;10.00;;;7.97;;
20621;SDS011;10470;42.670;23.354;2022-09-09T13:17:56;7.77;;;6.97;;
20621;SDS011;10470;42.670;23.354;2022-09-09T13:20:25;10.77;;;8.27;;
20621;SDS011;10470;42.670;23.354;2022-09-09T13:22:53;11.00;;;7.80;;
20621;SDS011;10470;42.670;23.354;2022-09-09T13:25:27;9.83;;;7.80;;
20621;SDS011;10470;42.670;23.354;2022-09-09T13:28:01;11.40;;;8.23;;
20621;SDS011;10470;42.670;23.354;2022-09-09T13:30:29;9.07;;;7.80;;
20621;SDS011;10470;42.670;23.354;2022-09-09T13:33:01;11.00;;;8.20;;
20621;SDS011;10470;42.670;23.354;2022-09-09T13:35:27;10.00;;;8.20;;
20621;SDS011;10470;42.670;23.354;2022-09-09T13:37:54;9.90;;;7.73;;
20621;SDS011;10470;42.670;23.354;2022-09-09T13:40:21;10.03;;;8.07;;
20621;SDS011;10470;42.670;23.354;2022-09-09T13:42:50;9.20;;;8.13;;
20621;SDS011;10470;42.670;23.354;2022-09-09T13:45:19;8.53;;;7.70;;
20621;SDS011;10470;42.670;23.354;2022-09-09T13:47:46;8.67;;;7.77;;
20621;SDS011;10470;42.670;23.354;2022-09-09T13:50:26;12.37;;;9.70;;
20621;SDS011;10470;42.670;23.354;2022-09-09T13:52:55;12.13;;;10.63;;
20621;SDS011;10470;42.670;23.354;2022-09-09T13:55:26;11.73;;;8.30;;
20621;SDS011;10470;42.670;23.354;2022-09-09T13:57:59;9.63;;;8.63;;
20621;SDS011;10470;42.670;23.354;2022-09-09T14:00:29;10.70;;;8.77;;
20621;SDS011;10470;42.670;23.354;2022-09-09T14:02:57;11.67;;;8.27;;
20621;SDS011;10470;42.670;23.354;2022-09-09T14:05:22;8.70;;;7.90;;
20621;SDS011;10470;42.670;23.354;2022-09-09T14:07:48;10.90;;;7.77;;
20621;SDS011;10470;42.670;23.354;2022-09-09T14:10:14;9.80;;;7.07;;
20621;SDS011;10470;42.670;23.354;2022-09-09T14:12:40;10.27;;;8.03;;
20621;SDS011;10470;42.670;23.354;2022-09-09T14:15:06;9.50;;;7.40;;
20621;SDS011;10470;42.670;23.354;2022-09-09T14:17:34;8.57;;;7.27;;
20621;SDS011;10470;42.670;23.354;2022-09-09T14:20:02;8.40;;;7.57;;
20621;SDS011;10470;42.670;23.354;2022-09-09T14:22:30;8.87;;;7.23;;
20621;SDS011;10470;42.670;23.354;2022-09-09T14:24:56;10.13;;;7.30;;
20621;SDS011;10470;42.670;23.354;2022-09-09T14:27:22;8.97;;;6.93;;
20621;SDS011;10470;42.670;23.354;2022-09-09T14:29:48;9.47;;;7.67;;
20621;SDS011;10470;42.670;23.354;2022-09-09T14:32:13;8.17;;;7.33;;
20621;SDS011;10470;42.670;23.354;2022-09-09T14:34:39;8.43;;;7.37;;
20621;SDS011;10470;42.670;23.354;2022-09-09T14:37:05;8.23;;;7.10;;
20621;SDS011;10470;42.670;23.354;2022-09-09T14:39:31;9.87;;;7.70;;
20621;SDS011;10470;42.670;23.354;2022-09-09T14:41:56;11.10;;;9.57;;
20621;SDS011;10470;42.670;23.354;2022-09-09T14:44:23;10.47;;;9.37;;
20621;SDS011;10470;42.670;23.354;2022-09-09T14:46:48;9.27;;;7.37;;
20621;SDS011;10470;42.670;23.354;2022-09-09T14:49:18;10.47;;;7.50;;
20621;SDS011;10470;42.670;23.354;2022-09-09T14:51:43;11.07;;;7.27;;
20621;SDS011;10470;42.670;23.354;2022-09-09T14:54:09;8.27;;;6.77;;
20621;SDS011;10470;42.670;23.354;2022-09-09T14:56:35;9.57;;;6.90;;
20621;SDS011;10470;42.670;23.354;2022-09-09T14:59:01;12.70;;;7.13;;
20621;SDS011;10470;42.670;23.354;2022-09-09T15:01:27;11.00;;;7.10;;
20621;SDS011;10470;42.670;23.354;2022-09-09T15:03:55;8.77;;;7.60;;
20621;SDS011;10470;42.670;23.354;2022-09-09T15:06:26;10.97;;;7.20;;
20621;SDS011;10470;42.670;23.354;2022-09-09T15:08:54;8.10;;;6.87;;
20621;SDS011;10470;42.670;23.354;2022-09-09T15:11:23;9.70;;;7.20;;
20621;SDS011;10470;42.670;23.354;2022-09-09T15:13:51;9.73;;;8.00;;
20621;SDS011;10470;42.670;23.354;2022-09-09T15:16:21;13.50;;;12.07;;
20621;SDS011;10470;42.670;23.354;2022-09-09T15:18:53;11.93;;;8.37;;
20621;SDS011;10470;42.670;23.354;2022-09-09T15:21:21;10.07;;;7.70;;
20621;SDS011;10470;42.670;23.354;2022-09-09T15:23:48;14.57;;;8.37;;
20621;SDS011;10470;42.670;23.354;2022-09-09T15:26:14;11.63;;;10.10;;
20621;SDS011;10470;42.670;23.354;2022-09-09T15:28:41;9.23;;;8.20;;
20621;SDS011;10470;42.670;23.354;2022-09-09T15:31:25;9.27;;;7.30;;
20621;SDS011;10470;42.670;23.354;2022-09-09T15:33:56;8.47;;;7.50;;
20621;SDS011;10470;42.670;23.354;2022-09-09T15:36:26;11.83;;;7.57;;
20621;SDS011;10470;42.670;23.354;2022-09-09T15:39:03;9.23;;;7.37;;
20621;SDS011;10470;42.670;23.354;2022-09-09T15:41:30;7.60;;;6.53;;
20621;SDS011;10470;42.670;23.354;2022-09-09T15:44:00;8.10;;;7.30;;
20621;SDS011;10470;42.670;23.354;2022-09-09T15:46:32;7.83;;;7.03;;
20621;SDS011;10470;42.670;23.354;2022-09-09T15:49:15;11.10;;;8.40;;
20621;SDS011;10470;42.670;23.354;2022-09-09T15:51:46;9.03;;;7.70;;
20621;SDS011;10470;42.670;23.354;2022-09-09T15:54:17;10.47;;;7.00;;
20621;SDS011;10470;42.670;23.354;2022-09-09T15:56:43;10.87;;;7.43;;
20621;SDS011;10470;42.670;23.354;2022-09-09T15:59:10;13.07;;;7.60;;
20621;SDS011;10470;42.670;23.354;2022-09-09T16:01:36;8.83;;;7.70;;
20621;SDS011;10470;42.670;23.354;2022-09-09T16:04:04;12.93;;;7.20;;
20621;SDS011;10470;42.670;23.354;2022-09-09T16:06:30;10.77;;;7.43;;
20621;SDS011;10470;42.670;23.354;2022-09-09T16:08:56;9.30;;;7.47;;
20621;SDS011;10470;42.670;23.354;2022-09-09T16:11:27;8.03;;;7.23;;
20621;SDS011;10470;42.670;23.354;2022-09-09T16:13:54;12.23;;;7.53;;
20621;SDS011;10470;42.670;23.354;2022-09-09T16:16:21;9.83;;;8.10;;
20621;SDS011;10470;42.670;23.354;2022-09-09T16:18:55;12.77;;;7.43;;
20621;SDS011;10470;42.670;23.354;2022-09-09T16:21:27;13.13;;;7.87;;
20621;SDS011;10470;42.670;23.354;2022-09-09T16:23:54;23.20;;;16.33;;
20621;SDS011;10470;42.670;23.354;2022-09-09T16:26:21;14.87;;;10.10;;
20621;SDS011;10470;42.670;23.354;2022-09-09T16:28:47;12.50;;;9.47;;
20621;SDS011;10470;42.670;23.354;2022-09-09T16:31:18;10.57;;;8.20;;
20621;SDS011;10470;42.670;23.354;2022-09-09T16:33:45;14.30;;;9.40;;
20621;SDS011;10470;42.670;23.354;2022-09-09T16:36:13;11.53;;;8.73;;
20621;SDS011;10470;42.670;23.354;2022-09-09T16:38:43;12.30;;;8.53;;
20621;SDS011;10470;42.670;23.354;2022-09-09T16:41:09;14.47;;;9.10;;
20621;SDS011;10470;42.670;23.354;2022-09-09T16:43:35;10.97;;;9.30;;
20621;SDS011;10470;42.670;23.354;2022-09-09T16:46:23;9.97;;;8.50;;
20621;SDS011;10470;42.670;23.354;2022-09-09T16:48:48;11.47;;;9.63;;
20621;SDS011;10470;42.670;23.354;2022-09-09T16:53:51;14.00;;;10.53;;
20621;SDS011;10470;42.670;23.354;2022-09-09T16:56:24;12.10;;;10.77;;
20621;SDS011;10470;42.670;23.354;2022-09-09T16:58:53;16.47;;;9.13;;
20621;SDS011;10470;42.670;23.354;2022-09-09T17:01:23;14.43;;;10.70;;